Time;durP1;ratioP1;P1;durP2;ratioP2;P2;SDS_P1;SDS_P2;PMS_P1;PMS_P2;Temp;Humidity;BMP_temperature;BMP_pressure;BME280_temperature;BME280_humidity;BME280_pressure;Samples;Min_cycle;Max_cycle;Signal;HPM_P1;HPM_P2
2022/03/06 00:02:15;;;;;;;7.60;7.10;;;;;;;20.52;26.98;94695.59;6154026;28;103148;-56
2022/03/06 00:05:17;;;;;;;7.47;6.97;;;;;;;20.53;26.88;94696.41;6159570;28;104038;-55
2022/03/06 00:08:19;;;;;;;7.97;7.37;;;;;;;20.53;26.84;94696.41;6160026;28;103965;-56
2022/03/06 00:11:21;;;;;;;7.20;6.70;;;;;;;20.52;26.98;94694.81;6182281;28;103982;-56
2022/03/06 00:14:23;;;;;;;7.90;7.30;;;;;;;20.54;26.79;94700.63;6178837;28;104481;-54
2022/03/06 00:17:25;;;;;;;6.80;6.33;;;;;;;20.52;26.97;94697.47;6166420;28;104377;-55
2022/03/06 00:20:26;;;;;;;6.83;6.43;;;;;;;20.51;27.04;94696.69;6183569;28;103477;-56
2022/03/06 00:23:28;;;;;;;6.83;6.33;;;;;;;20.50;26.86;94681.84;6184547;28;103159;-55
2022/03/06 00:26:30;;;;;;;6.50;6.10;;;;;;;20.50;26.90;94689.81;6159739;28;103230;-55
2022/03/06 00:29:32;;;;;;;6.43;5.93;;;;;;;20.50;27.00;94692.47;6184490;28;103608;-55
2022/03/06 00:32:34;;;;;;;6.50;6.00;;;;;;;20.52;26.88;94692.97;6181913;28;103046;-56
2022/03/06 00:35:36;;;;;;;6.40;6.00;;;;;;;20.52;26.81;94686.88;6179095;28;103785;-56
2022/03/06 00:38:38;;;;;;;6.27;5.87;;;;;;;20.48;27.03;94681.34;6184245;28;104295;-56
2022/03/06 00:41:40;;;;;;;6.30;5.80;;;;;;;20.50;26.85;94687.16;6183661;28;104083;-56
2022/03/06 00:44:41;;;;;;;5.97;5.57;;;;;;;20.47;27.14;94687.72;6184122;28;103770;-55
2022/03/06 00:47:43;;;;;;;6.03;5.63;;;;;;;20.49;27.03;94674.16;6178259;28;103376;-56
2022/03/06 00:50:45;;;;;;;6.00;5.60;;;;;;;20.50;26.85;94678.41;6183846;28;103128;-56
2022/03/06 00:53:47;;;;;;;5.83;5.43;;;;;;;20.49;27.00;94674.97;6184228;28;104208;-55
2022/03/06 00:56:49;;;;;;;6.17;5.77;;;;;;;20.47;26.88;94671.81;6161137;28;104806;-56
2022/03/06 00:59:51;;;;;;;5.60;5.20;;;;;;;20.50;27.10;94673.09;6183028;28;105340;-56
2022/03/06 01:02:52;;;;;;;5.43;5.13;;;;;;;20.50;26.86;94659.84;6182290;28;102710;-56
2022/03/06 01:05:54;;;;;;;5.90;5.50;;;;;;;20.50;26.95;94667.81;6183831;28;103580;-56
2022/03/06 01:08:56;;;;;;;5.43;5.13;;;;;;;20.50;26.96;94660.63;6175044;28;106343;-56
2022/03/06 01:11:58;;;;;;;5.30;5.00;;;;;;;20.49;26.90;94652.94;6159026;28;103007;-56
2022/03/06 01:15:00;;;;;;;5.03;4.70;;;;;;;20.47;26.87;94655.09;6159016;28;104118;-56
2022/03/06 01:18:08;;;;;;;5.57;5.17;;;;;;;20.48;26.96;94649.50;6158392;28;104444;-56
2022/03/06 01:21:10;;;;;;;5.10;4.80;;;;;;;20.47;27.00;94655.88;6153418;28;104160;-56
2022/03/06 01:24:12;;;;;;;5.87;5.37;;;;;;;20.48;26.86;94654.81;6158728;28;103772;-55
2022/03/06 01:27:14;;;;;;;5.20;4.80;;;;;;;20.49;26.85;94647.63;6158281;28;103036;-56
2022/03/06 01:30:19;;;;;;;5.30;4.90;;;;;;;20.49;27.20;94651.09;6153273;28;103173;-56
2022/03/06 01:33:21;;;;;;;5.53;5.13;;;;;;;20.48;27.02;94646.84;6157416;28;103697;-56
2022/03/06 01:36:22;;;;;;;5.03;4.73;;;;;;;20.48;26.94;94641.53;6158974;28;103589;-56
2022/03/06 01:39:24;;;;;;;4.90;4.60;;;;;;;20.46;26.78;94643.72;6157352;28;102919;-56
2022/03/06 01:42:26;;;;;;;5.50;5.10;;;;;;;20.47;26.92;94639.19;6152557;28;104195;-57
2022/03/06 01:45:28;;;;;;;5.00;4.70;;;;;;;20.45;27.27;94630.75;6158133;28;103331;-56
2022/03/06 01:48:30;;;;;;;5.00;4.70;;;;;;;20.48;27.16;94641.53;6140522;28;103963;-56
2022/03/06 01:51:32;;;;;;;5.40;5.10;;;;;;;20.47;26.87;94637.31;6157970;28;103278;-56
2022/03/06 01:54:34;;;;;;;5.13;4.83;;;;;;;20.47;27.12;94632.00;6153048;28;105033;-56
2022/03/06 01:57:39;;;;;;;5.27;4.87;;;;;;;20.47;27.05;94634.66;6158027;28;102813;-56
2022/03/06 02:00:44;;;;;;;5.37;4.97;;;;;;;20.45;26.92;94631.53;6158176;28;104267;-56
2022/03/06 02:03:46;;;;;;;5.30;4.90;;;;;;;20.46;27.06;94627.00;6151812;28;104334;-56
2022/03/06 02:06:48;;;;;;;5.53;5.13;;;;;;;20.45;27.36;94620.91;6140075;28;103362;-56
2022/03/06 02:09:50;;;;;;;4.80;4.50;;;;;;;20.48;26.89;94625.63;6166830;28;104250;-56
2022/03/06 02:12:51;;;;;;;5.90;5.50;;;;;;;20.46;26.88;94622.47;6182501;28;103390;-57
2022/03/06 02:15:54;;;;;;;5.00;4.60;;;;;;;20.47;27.14;94629.34;6176265;28;103991;-55
2022/03/06 02:18:56;;;;;;;4.97;4.67;;;;;;;20.45;26.86;94628.88;6181579;28;103084;-56
2022/03/06 02:21:58;;;;;;;5.20;4.90;;;;;;;20.47;26.94;94633.88;6181944;28;104100;-56
2022/03/06 02:25:02;;;;;;;5.00;4.70;;;;;;;20.47;26.81;94632.00;6177335;28;103834;-55
2022/03/06 02:28:09;;;;;;;4.77;4.47;;;;;;;20.47;27.05;94629.34;6180654;28;103031;-56
2022/03/06 02:31:11;;;;;;;4.90;4.60;;;;;;;20.46;26.83;94627.78;6181890;28;102926;-56
2022/03/06 02:34:13;;;;;;;4.80;4.50;;;;;;;20.48;27.03;94617.66;6180415;28;102986;-55
2022/03/06 02:37:18;;;;;;;4.83;4.53;;;;;;;20.46;27.17;94627.78;6159283;28;105008;-56
2022/03/06 02:40:22;;;;;;;4.40;4.10;;;;;;;20.45;27.06;94623.56;6181411;28;103524;-56
2022/03/06 02:43:23;;;;;;;4.07;3.87;;;;;;;20.47;26.78;94629.34;6184401;28;103047;-56
2022/03/06 02:46:25;;;;;;;4.10;3.80;;;;;;;20.47;26.78;94629.34;6185640;28;104173;-56
2022/03/06 02:49:27;;;;;;;4.50;4.20;;;;;;;20.47;26.93;94628.56;6181269;28;104086;-56
2022/03/06 02:52:29;;;;;;;4.43;4.13;;;;;;;20.44;26.91;94627.31;6185322;28;103319;-56
2022/03/06 02:55:31;;;;;;;4.40;4.10;;;;;;;20.47;27.05;94628.56;6185537;28;103019;-57
2022/03/06 02:58:33;;;;;;;4.47;4.17;;;;;;;20.46;26.81;94635.75;6180101;28;103342;-56
2022/03/06 03:01:40;;;;;;;4.00;3.80;;;;;;;20.45;26.99;94631.53;6185480;28;103244;-56
2022/03/06 03:04:42;;;;;;;4.80;4.40;;;;;;;20.44;26.93;94635.25;6166802;28;103114;-56
2022/03/06 03:07:46;;;;;;;3.67;3.47;;;;;;;20.46;26.99;94633.09;6185166;28;103922;-56
2022/03/06 03:10:47;;;;;;;3.63;3.43;;;;;;;20.44;27.05;94632.59;6162343;28;103285;-56
2022/03/06 03:13:49;;;;;;;4.17;3.97;;;;;;;20.44;27.10;94637.91;6161038;28;104280;-56
2022/03/06 03:16:51;;;;;;;3.53;3.33;;;;;;;20.43;26.92;94631.03;6159919;28;103171;-56
2022/03/06 03:19:53;;;;;;;3.40;3.20;;;;;;;20.41;26.97;94641.97;6142389;28;105095;-55
2022/03/06 03:22:55;;;;;;;3.53;3.33;;;;;;;20.45;26.91;94650.09;6156141;28;103121;-61
2022/03/06 03:25:57;;;;;;;3.83;3.63;;;;;;;20.43;27.03;94637.13;6160877;28;104112;-55
2022/03/06 03:28:59;;;;;;;3.67;3.47;;;;;;;20.44;26.91;94645.88;6160147;28;103232;-55
2022/03/06 03:32:01;;;;;;;3.80;3.60;;;;;;;20.44;26.93;94643.22;6154793;28;103069;-56
2022/03/06 03:35:03;;;;;;;3.27;3.07;;;;;;;20.44;27.02;94648.53;6159962;28;103403;-56
2022/03/06 03:38:05;;;;;;;3.30;3.10;;;;;;;20.44;26.73;94645.88;6160366;28;103133;-55
2022/03/06 03:41:07;;;;;;;3.43;3.23;;;;;;;20.44;27.02;94645.88;6160274;28;102866;-56
2022/03/06 03:44:09;;;;;;;3.30;3.10;;;;;;;20.43;26.81;94654.91;6154071;28;102889;-56
2022/03/06 03:47:11;;;;;;;3.17;3.00;;;;;;;20.42;27.04;94648.03;6160220;28;103433;-56
2022/03/06 03:50:13;;;;;;;3.40;3.20;;;;;;;20.43;26.94;94658.34;6159554;28;103033;-55
2022/03/06 03:53:14;;;;;;;3.67;3.47;;;;;;;20.42;26.95;94653.34;6154068;28;103607;-56
2022/03/06 03:56:16;;;;;;;3.30;3.10;;;;;;;20.43;26.98;94661.00;6159955;28;104171;-56
2022/03/06 03:59:18;;;;;;;3.33;3.13;;;;;;;20.43;27.20;94655.72;6159729;28;103025;-56
2022/03/06 04:02:20;;;;;;;3.03;2.83;;;;;;;20.41;26.88;94646.47;6160238;28;103383;-56
2022/03/06 04:05:22;;;;;;;2.73;2.63;;;;;;;20.40;27.05;94652.84;6153577;28;103025;-55
2022/03/06 04:08:24;;;;;;;2.97;2.77;;;;;;;20.42;27.03;94659.44;6159334;28;103516;-57
2022/03/06 04:11:26;;;;;;;2.43;2.33;;;;;;;20.43;26.96;94660.22;6182757;28;103219;-57
2022/03/06 04:14:27;;;;;;;2.80;2.70;;;;;;;20.42;26.78;94658.66;6184599;28;103300;-57
2022/03/06 04:17:29;;;;;;;2.50;2.40;;;;;;;20.41;26.86;94660.53;6178766;28;103145;-56
2022/03/06 04:20:31;;;;;;;2.20;2.10;;;;;;;20.42;27.06;94653.34;6184249;28;103505;-56
2022/03/06 04:23:33;;;;;;;3.00;2.80;;;;;;;20.40;26.82;94656.28;6183840;28;103979;-56
2022/03/06 04:26:36;;;;;;;2.67;2.57;;;;;;;20.42;27.15;94656.00;6178748;28;103995;-55
2022/03/06 04:29:37;;;;;;;2.53;2.43;;;;;;;20.39;27.04;94662.66;6183698;28;104339;-55
2022/03/06 04:32:39;;;;;;;2.70;2.53;;;;;;;20.40;26.99;94660.81;6183223;28;103981;-56
2022/03/06 04:35:41;;;;;;;2.77;2.57;;;;;;;20.40;27.07;94660.81;6183441;28;103339;-57
2022/03/06 04:38:43;;;;;;;2.63;2.43;;;;;;;20.41;26.86;94663.19;6177449;28;103303;-56
2022/03/06 04:41:44;;;;;;;2.60;2.50;;;;;;;20.40;26.99;94663.44;6184623;28;103317;-56
2022/03/06 04:44:46;;;;;;;2.37;2.27;;;;;;;20.41;26.99;94668.50;6183445;28;103660;-55
2022/03/06 04:47:48;;;;;;;2.00;1.90;;;;;;;20.40;27.04;94666.09;6183504;28;103080;-55
2022/03/06 04:50:50;;;;;;;2.30;2.20;;;;;;;20.40;26.97;94661.59;6178504;28;104346;-56
2022/03/06 04:53:51;;;;;;;2.60;2.47;;;;;;;20.40;27.15;94666.09;6183022;28;103056;-56
2022/03/06 04:56:53;;;;;;;2.50;2.40;;;;;;;20.39;26.97;94667.97;6184048;28;103595;-56
2022/03/06 04:59:55;;;;;;;2.20;2.10;;;;;;;20.41;26.95;94667.72;6177952;28;104064;-55
2022/03/06 05:02:57;;;;;;;2.20;2.10;;;;;;;20.39;26.83;94667.19;6183172;28;103015;-56
2022/03/06 05:05:59;;;;;;;2.10;2.00;;;;;;;20.40;26.93;94674.84;6182024;28;103527;-56
2022/03/06 05:09:01;;;;;;;2.40;2.30;;;;;;;20.38;27.00;94668.28;6179625;28;103628;-56
2022/03/06 05:12:03;;;;;;;2.20;2.10;;;;;;;20.39;26.94;94667.19;6153411;28;104625;-56
2022/03/06 05:15:07;;;;;;;2.30;2.20;;;;;;;20.39;27.02;94670.63;6158002;28;103057;-56
2022/03/06 05:18:11;;;;;;;2.00;1.90;;;;;;;20.39;26.80;94680.44;6158818;28;104014;-56
2022/03/06 05:21:13;;;;;;;2.20;2.10;;;;;;;20.39;27.05;94675.94;6154054;28;104025;-56
2022/03/06 05:24:15;;;;;;;1.80;1.70;;;;;;;20.38;27.06;94673.59;6157934;28;103061;-56
2022/03/06 05:27:16;;;;;;;1.93;1.83;;;;;;;20.38;26.97;94674.38;6159053;28;104051;-57
2022/03/06 05:30:18;;;;;;;1.90;1.80;;;;;;;20.39;26.76;94672.50;6158106;28;103969;-56
2022/03/06 05:33:20;;;;;;;1.83;1.73;;;;;;;20.40;26.82;94679.38;6152557;28;104508;-56
2022/03/06 05:36:22;;;;;;;1.73;1.63;;;;;;;20.40;27.03;94679.38;6156782;28;103286;-56
2022/03/06 05:39:24;;;;;;;2.03;1.93;;;;;;;20.38;27.03;94684.97;6158202;28;103169;-56
2022/03/06 05:42:26;;;;;;;1.80;1.70;;;;;;;20.39;27.01;94685.75;6158124;28;103178;-56
2022/03/06 05:45:28;;;;;;;2.13;2.03;;;;;;;20.38;26.85;94684.97;6152856;28;103812;-56
2022/03/06 05:48:29;;;;;;;2.23;2.13;;;;;;;20.38;26.91;94681.53;6158278;28;104047;-56
2022/03/06 05:51:31;;;;;;;1.90;1.80;;;;;;;20.37;27.17;94683.41;6157678;28;103020;-56
2022/03/06 05:54:33;;;;;;;2.00;1.90;;;;;;;20.36;27.09;94678.41;6153822;28;103822;-56
2022/03/06 05:57:35;;;;;;;1.83;1.73;;;;;;;20.38;27.01;94687.63;6157636;28;103068;-54
2022/03/06 06:00:37;;;;;;;1.87;1.77;;;;;;;20.39;27.13;94685.75;6157273;28;104211;-55
2022/03/06 06:03:38;;;;;;;1.80;1.70;;;;;;;20.38;26.77;94682.31;6157615;28;103110;-55
2022/03/06 06:06:40;;;;;;;1.80;1.70;;;;;;;20.38;26.98;94676.22;6150433;28;103062;-55
2022/03/06 06:09:43;;;;;;;1.87;1.77;;;;;;;20.37;27.09;94687.94;6166777;28;103643;-56
2022/03/06 06:12:45;;;;;;;1.50;1.40;;;;;;;20.36;26.84;94689.78;6163990;28;102908;-55
2022/03/06 06:15:47;;;;;;;1.60;1.50;;;;;;;20.38;27.03;94695.59;6182018;28;103046;-58
2022/03/06 06:18:48;;;;;;;1.80;1.70;;;;;;;20.40;27.02;94692.63;6179928;28;103023;-56
2022/03/06 06:21:50;;;;;;;1.70;1.60;;;;;;;20.38;26.92;94702.75;6186000;28;103095;-55
2022/03/06 06:24:52;;;;;;;1.80;1.70;;;;;;;20.38;26.95;94700.91;6168191;28;102991;-55
2022/03/06 06:27:54;;;;;;;1.70;1.60;;;;;;;20.37;26.99;94695.88;6180305;28;103185;-55
2022/03/06 06:30:56;;;;;;;1.20;1.20;;;;;;;20.38;26.68;94710.72;6186230;28;104390;-56
2022/03/06 06:33:58;;;;;;;1.60;1.50;;;;;;;20.38;26.73;94700.91;6185457;28;103137;-55
2022/03/06 06:37:00;;;;;;;1.80;1.70;;;;;;;20.37;27.03;94709.94;6184916;28;103445;-55
2022/03/06 06:40:03;;;;;;;1.63;1.53;;;;;;;20.38;27.05;94708.06;6181127;28;103125;-56
2022/03/06 06:43:05;;;;;;;1.80;1.70;;;;;;;20.38;26.78;94705.41;6185497;28;104294;-56
2022/03/06 06:46:07;;;;;;;1.60;1.50;;;;;;;20.37;27.05;94709.94;6186117;28;103492;-56
2022/03/06 06:49:10;;;;;;;1.60;1.50;;;;;;;20.36;27.07;94707.59;6185644;28;104322;-55
2022/03/06 06:52:12;;;;;;;1.67;1.57;;;;;;;20.34;26.93;94710.53;6181908;28;103841;-56
2022/03/06 06:55:14;;;;;;;1.57;1.47;;;;;;;20.35;26.90;94706.00;6186208;28;103794;-56
2022/03/06 06:58:16;;;;;;;1.70;1.60;;;;;;;20.36;27.02;94708.38;6186067;28;104109;-55
2022/03/06 07:01:18;;;;;;;1.60;1.50;;;;;;;20.35;26.96;94708.66;6180789;28;102953;-56
2022/03/06 07:04:20;;;;;;;1.80;1.70;;;;;;;20.38;27.04;94713.38;6185098;28;103200;-56
2022/03/06 07:07:21;;;;;;;1.70;1.60;;;;;;;20.36;26.96;94712.88;6185338;28;103059;-56
2022/03/06 07:10:23;;;;;;;1.70;1.60;;;;;;;20.37;26.81;94709.16;6185378;28;102992;-55
2022/03/06 07:13:25;;;;;;;1.50;1.40;;;;;;;20.38;26.80;94716.03;6179751;28;103070;-55
2022/03/06 07:16:27;;;;;;;1.73;1.63;;;;;;;20.37;27.05;94714.47;6185395;28;104011;-55
2022/03/06 07:19:29;;;;;;;1.77;1.67;;;;;;;20.35;26.89;94700.72;6185152;28;103083;-57
2022/03/06 07:22:31;;;;;;;1.70;1.60;;;;;;;20.35;26.99;94706.00;6180370;28;104371;-56
2022/03/06 07:25:33;;;;;;;1.67;1.57;;;;;;;20.37;26.88;94706.50;6184338;28;103165;-57
2022/03/06 07:28:34;;;;;;;1.77;1.67;;;;;;;20.36;26.89;94699.63;6184428;28;103099;-56
2022/03/06 07:31:36;;;;;;;1.60;1.50;;;;;;;20.35;26.81;94698.06;6184645;28;104022;-56
2022/03/06 07:34:38;;;;;;;1.63;1.53;;;;;;;20.35;26.63;94700.72;6178682;28;103694;-56
2022/03/06 07:37:41;;;;;;;1.83;1.73;;;;;;;20.37;26.89;94706.50;6184032;28;103308;-56
2022/03/06 07:40:44;;;;;;;1.90;1.80;;;;;;;20.37;26.78;94704.63;6184798;28;104093;-56
2022/03/06 07:43:45;;;;;;;1.60;1.50;;;;;;;20.36;26.84;94697.75;6184179;28;103746;-56
2022/03/06 07:46:47;;;;;;;1.87;1.77;;;;;;;20.37;26.91;94704.63;6179471;28;103361;-55
2022/03/06 07:49:49;;;;;;;1.37;1.30;;;;;;;20.38;27.06;94710.72;6184083;28;103271;-56
2022/03/06 07:52:52;;;;;;;1.70;1.60;;;;;;;20.37;26.84;94711.81;6184692;28;104037;-56
2022/03/06 07:55:53;;;;;;;1.67;1.57;;;;;;;20.36;27.01;94712.88;6179242;28;103116;-56
2022/03/06 07:58:55;;;;;;;1.50;1.40;;;;;;;20.39;26.92;94728.22;6184513;28;104052;-56
2022/03/06 08:01:57;;;;;;;1.80;1.70;;;;;;;20.37;26.94;94720.56;6184647;28;103064;-56
2022/03/06 08:04:59;;;;;;;1.67;1.57;;;;;;;20.38;27.00;94724.00;6184235;28;103839;-57
2022/03/06 08:08:01;;;;;;;1.83;1.73;;;;;;;20.37;26.96;94715.25;6178232;28;103050;-56
2022/03/06 08:11:02;;;;;;;1.50;1.40;;;;;;;20.37;26.98;94715.25;6164057;28;104066;-57
2022/03/06 08:14:04;;;;;;;1.70;1.60;;;;;;;20.38;26.80;94708.06;6159469;28;103038;-56
2022/03/06 08:17:06;;;;;;;1.63;1.53;;;;;;;20.37;26.86;94711.81;6159558;28;104293;-57
2022/03/06 08:20:09;;;;;;;1.33;1.23;;;;;;;20.38;27.04;94716.81;6153594;28;103755;-57
2022/03/06 08:23:10;;;;;;;1.83;1.40;;;;;;;20.38;26.83;94719.47;6159174;28;103019;-57
2022/03/06 08:26:12;;;;;;;2.00;1.90;;;;;;;20.38;26.80;94727.44;6158805;28;103448;-56
2022/03/06 08:29:14;;;;;;;1.80;1.70;;;;;;;20.38;26.59;94724.78;6153931;28;104138;-57
2022/03/06 08:32:16;;;;;;;1.53;1.43;;;;;;;20.38;26.85;94713.38;6159128;28;104130;-56
2022/03/06 08:35:18;;;;;;;1.60;1.50;;;;;;;20.36;26.80;94702.28;6158676;28;103101;-56
2022/03/06 08:38:20;;;;;;;1.70;1.60;;;;;;;20.36;26.92;94711.03;6158411;28;103210;-57
2022/03/06 08:41:22;;;;;;;1.60;1.50;;;;;;;20.36;26.63;94708.38;6152715;28;104246;-56
2022/03/06 08:44:23;;;;;;;1.60;1.50;;;;;;;20.37;26.95;94709.16;6159027;28;103938;-57
2022/03/06 08:47:25;;;;;;;1.50;1.40;;;;;;;20.37;26.88;94709.16;6159122;28;103403;-56
2022/03/06 08:50:27;;;;;;;1.60;1.50;;;;;;;20.31;26.77;94703.16;6156212;28;104304;-55
2022/03/06 08:53:29;;;;;;;1.83;1.73;;;;;;;20.36;26.83;94711.03;6157798;28;105438;-57
2022/03/06 08:56:31;;;;;;;1.47;1.37;;;;;;;20.38;26.65;94706.19;6158637;28;103026;-56
2022/03/06 08:59:32;;;;;;;1.67;1.30;;;;;;;20.40;26.59;94709.34;6159008;28;103056;-56
2022/03/06 09:02:35;;;;;;;1.80;1.70;;;;;;;20.41;26.96;94710.16;6153400;28;102974;-56
2022/03/06 09:05:40;;;;;;;1.60;1.50;;;;;;;20.39;26.81;94707.00;6158155;28;103975;-57
2022/03/06 09:08:42;;;;;;;1.40;1.30;;;;;;;20.43;26.58;94697.38;6158368;28;104181;-57
2022/03/06 09:11:45;;;;;;;1.60;1.50;;;;;;;20.44;26.68;94701.59;6159220;28;104276;-58
2022/03/06 09:14:47;;;;;;;1.73;1.63;;;;;;;20.46;26.70;94702.09;6153156;28;103080;-55
2022/03/06 09:17:48;;;;;;;1.63;1.53;;;;;;;20.47;26.93;94703.66;6158549;28;103522;-56
2022/03/06 09:20:50;;;;;;;1.40;1.30;;;;;;;20.48;26.79;94704.44;6158638;28;103434;-56
2022/03/06 09:23:52;;;;;;;1.27;1.27;;;;;;;20.47;27.05;94705.53;6153752;28;103246;-56
2022/03/06 09:26:54;;;;;;;1.93;1.83;;;;;;;20.46;26.68;94709.25;6157480;28;104272;-55
2022/03/06 09:29:56;;;;;;;1.90;1.80;;;;;;;20.45;26.90;94716.44;6158557;28;103313;-55
2022/03/06 09:32:58;;;;;;;1.80;1.70;;;;;;;20.44;26.76;94706.91;6157648;28;103267;-56
2022/03/06 09:36:01;;;;;;;1.83;1.73;;;;;;;20.46;26.84;94711.91;6152592;28;103278;-56
2022/03/06 09:39:06;;;;;;;1.50;1.40;;;;;;;20.43;26.86;94706.13;6157474;28;103119;-56
2022/03/06 09:42:08;;;;;;;1.60;1.50;;;;;;;20.43;26.89;94695.50;6158007;28;104058;-56
2022/03/06 09:45:12;;;;;;;1.67;1.57;;;;;;;20.43;27.02;94708.00;6157588;28;102704;-55
2022/03/06 09:48:16;;;;;;;1.87;1.77;;;;;;;20.42;26.86;94709.84;6152566;28;104105;-55
2022/03/06 09:51:19;;;;;;;1.60;1.50;;;;;;;20.42;26.57;94720.47;6157044;28;103319;-56
2022/03/06 09:54:21;;;;;;;1.77;1.50;;;;;;;20.41;26.97;94723.44;6158319;28;102696;-55
2022/03/06 09:57:23;;;;;;;1.67;1.57;;;;;;;20.39;26.96;94717.59;6152031;28;104584;-55
2022/03/06 10:00:25;;;;;;;1.90;1.80;;;;;;;20.37;26.98;94712.59;6158290;28;102815;-56
2022/03/06 10:03:27;;;;;;;1.70;1.60;;;;;;;20.36;26.86;94728.81;6158322;28;105161;-56
2022/03/06 10:06:29;;;;;;;1.70;1.60;;;;;;;20.36;27.07;94718.19;6140619;28;103457;-56
2022/03/06 10:09:33;;;;;;;1.97;1.87;;;;;;;20.36;27.10;94732.25;6158683;28;103013;-55
2022/03/06 10:12:35;;;;;;;1.60;1.50;;;;;;;20.36;26.74;94723.50;6182454;28;104017;-55
2022/03/06 10:16:17;;;;;;;1.60;1.50;;;;;;;20.35;26.79;94722.72;6182112;28;104607;-55
2022/03/06 10:19:19;;;;;;;1.90;1.80;;;;;;;20.35;26.78;94733.34;6076042;28;104338;-56
2022/03/06 10:22:23;;;;;;;2.03;1.93;;;;;;;20.35;26.43;94725.38;6082042;28;103241;-56
2022/03/06 10:25:26;;;;;;;1.60;1.50;;;;;;;20.35;26.71;94733.34;6180378;28;103056;-56
2022/03/06 10:28:28;;;;;;;2.00;1.90;;;;;;;20.34;26.79;94730.97;6182134;28;103743;-57
2022/03/06 10:31:32;;;;;;;1.60;1.50;;;;;;;20.34;26.96;94710.53;6176200;28;104266;-55
2022/03/06 10:34:39;;;;;;;1.90;1.80;;;;;;;20.33;26.79;94713.50;6181393;28;103158;-56
2022/03/06 10:37:41;;;;;;;1.60;1.50;;;;;;;20.35;26.84;94719.28;6181746;28;103422;-56
2022/03/06 10:40:43;;;;;;;1.70;1.60;;;;;;;20.33;26.50;94722.22;6179818;28;103386;-55
2022/03/06 10:43:44;;;;;;;1.90;1.80;;;;;;;20.33;26.79;94716.94;6202410;28;103951;-56
2022/03/06 10:47:01;;;;;;;1.80;1.70;;;;;;;20.29;26.67;94707.97;6205802;28;102954;-57
2022/03/06 10:50:05;;;;;;;4.53;2.00;;;;;;;20.35;27.00;94708.66;6190569;28;103101;-57
2022/03/06 10:53:22;;;;;;;5.20;4.77;;;;;;;20.39;27.27;94702.47;6175722;28;103015;-55
2022/03/06 10:56:25;;;;;;;7.10;6.50;;;;;;;20.48;27.63;94707.88;6179390;28;103557;-55
2022/03/06 10:59:27;;;;;;;9.03;8.23;;;;;;;20.59;27.89;94716.44;6182065;28;104255;-56
2022/03/06 11:02:31;;;;;;;9.00;8.30;;;;;;;20.82;28.35;94703.97;6178718;28;104656;-54
2022/03/06 11:05:33;;;;;;;9.33;8.30;;;;;;;21.01;27.95;94705.44;6159802;28;105497;-55
2022/03/06 11:08:37;;;;;;;10.00;8.70;;;;;;;21.13;28.05;94704.09;6176860;28;103632;-56
2022/03/06 11:11:41;;;;;;;9.47;8.47;;;;;;;21.21;28.23;94695.41;6171157;28;103052;-56
2022/03/06 11:14:43;;;;;;;9.13;8.20;;;;;;;21.25;28.18;94707.81;6171249;28;103236;-56
2022/03/06 11:17:46;;;;;;;9.57;8.57;;;;;;;21.33;28.56;94719.56;6167078;28;104100;-56
2022/03/06 11:20:48;;;;;;;10.90;10.00;;;;;;;21.40;28.55;94719.19;6181835;28;104604;-56
2022/03/06 11:23:52;;;;;;;10.20;9.40;;;;;;;21.46;28.67;94709.97;6168096;28;103998;-55
2022/03/06 11:27:14;;;;;;;10.70;9.80;;;;;;;21.51;28.63;94715.19;6175307;28;104289;-54
2022/03/06 11:30:20;;;;;;;10.83;9.57;;;;;;;21.44;28.71;94714.81;6179085;28;103292;-55
2022/03/06 11:33:22;;;;;;;10.93;9.10;;;;;;;21.46;28.56;94709.97;6173158;28;102872;-55
2022/03/06 11:36:26;;;;;;;13.60;9.33;;;;;;;21.53;28.79;94707.69;6176679;28;103718;-55
2022/03/06 11:39:31;;;;;;;15.07;12.87;;;;;;;21.57;28.89;94703.34;6180656;28;102947;-55
2022/03/06 11:42:48;;;;;;;12.70;11.50;;;;;;;21.60;28.80;94705.38;6171843;28;104238;-56
2022/03/06 11:45:52;;;;;;;13.03;11.83;;;;;;;21.56;28.75;94704.44;6164563;28;103459;-56
2022/03/06 11:48:57;;;;;;;14.47;13.17;;;;;;;21.52;28.65;94706.91;6178473;28;104084;-56
2022/03/06 11:51:59;;;;;;;13.87;12.67;;;;;;;21.53;28.66;94705.03;6162715;28;104205;-55
2022/03/06 11:55:03;;;;;;;15.87;14.47;;;;;;;21.49;28.60;94699.53;6166449;28;102951;-55
2022/03/06 11:58:05;;;;;;;14.87;13.47;;;;;;;21.50;28.63;94690.50;6178568;28;104778;-55
2022/03/06 12:01:07;;;;;;;15.60;14.10;;;;;;;21.51;28.76;94689.41;6169676;28;104445;-56
2022/03/06 12:04:12;;;;;;;15.23;13.77;;;;;;;21.53;28.60;94697.06;6182666;28;104181;-56
2022/03/06 12:07:16;;;;;;;16.47;14.97;;;;;;;21.53;28.56;94705.03;6183716;28;103351;-55
2022/03/06 12:10:18;;;;;;;16.67;15.07;;;;;;;21.51;29.01;94707.22;6174484;28;102807;-56
2022/03/06 12:13:22;;;;;;;17.53;15.93;;;;;;;21.51;28.90;94707.22;6179284;28;103328;-55
2022/03/06 12:16:24;;;;;;;18.83;17.13;;;;;;;21.51;28.90;94704.56;6182300;28;104183;-55
2022/03/06 12:19:35;;;;;;;18.57;16.93;;;;;;;21.50;28.72;94709.09;6182480;28;103074;-54
2022/03/06 12:22:44;;;;;;;19.57;17.87;;;;;;;21.49;28.87;94704.06;6173659;28;104120;-55
2022/03/06 12:25:52;;;;;;;20.37;18.57;;;;;;;21.53;29.17;94713.78;6178619;28;103020;-55
2022/03/06 12:28:55;;;;;;;19.50;17.97;;;;;;;21.54;29.17;94703.94;6182203;28;104030;-55
2022/03/06 12:32:26;;;;;;;20.30;18.60;;;;;;;21.54;29.09;94703.94;6165205;28;104437;-55
2022/03/06 12:35:28;;;;;;;21.20;19.27;;;;;;;21.54;28.97;94698.63;6172342;28;103633;-55
2022/03/06 12:38:31;;;;;;;22.07;20.27;;;;;;;21.55;29.15;94687.69;6180912;28;102876;-56
2022/03/06 12:41:34;;;;;;;20.50;18.53;;;;;;;21.63;29.20;94686.16;6167489;28;103046;-57
2022/03/06 12:44:45;;;;;;;21.77;19.90;;;;;;;21.68;29.87;94682.59;6164679;28;104653;-55
2022/03/06 12:47:47;;;;;;;21.50;19.60;;;;;;;21.72;30.05;94687.00;6182131;28;103038;-55
2022/03/06 12:50:49;;;;;;;22.03;20.20;;;;;;;21.76;30.13;94685.28;6182438;28;103426;-55
2022/03/06 12:53:51;;;;;;;22.60;20.70;;;;;;;21.77;30.13;94683.41;6172728;28;104427;-54
2022/03/06 12:56:55;;;;;;;22.43;20.43;;;;;;;21.76;30.43;94689.84;6181231;28;103012;-56
2022/03/06 12:59:57;;;;;;;23.70;21.30;;;;;;;21.79;30.32;94695.31;6166232;28;102870;-57
2022/03/06 13:03:07;;;;;;;23.77;21.67;;;;;;;21.77;30.25;94689.53;6166506;28;103110;-56
2022/03/06 13:06:14;;;;;;;23.50;21.60;;;;;;;21.78;30.20;94688.44;6176232;28;103429;-56
2022/03/06 13:09:34;;;;;;;24.63;22.43;;;;;;;21.78;30.35;94692.97;6181726;28;103618;-56
2022/03/06 13:12:38;;;;;;;25.47;23.27;;;;;;;21.79;30.37;94690.00;6157889;28;103426;-58
2022/03/06 13:15:41;;;;;;;25.63;23.33;;;;;;;21.80;30.32;94690.78;6167474;28;104489;-55
2022/03/06 13:18:43;;;;;;;25.53;23.43;;;;;;;21.78;30.27;94693.75;6181071;28;103517;-56
2022/03/06 13:21:46;;;;;;;25.03;22.87;;;;;;;21.76;30.35;94693.28;6174217;28;104329;-55
2022/03/06 13:24:55;;;;;;;25.27;23.00;;;;;;;21.77;30.36;94686.09;6169972;28;103751;-55
2022/03/06 13:27:57;;;;;;;26.10;24.00;;;;;;;21.76;30.43;94689.84;6163574;28;103711;-55
2022/03/06 13:31:00;;;;;;;24.73;22.53;;;;;;;21.77;30.27;94686.88;6171593;28;104166;-56
2022/03/06 13:34:05;;;;;;;24.83;22.73;;;;;;;21.76;30.33;94681.84;6167173;28;103321;-57
2022/03/06 13:37:07;;;;;;;24.80;22.80;;;;;;;21.85;30.49;94694.13;6174115;28;103675;-56
2022/03/06 13:40:14;;;;;;;23.70;21.77;;;;;;;21.89;30.59;94699.59;6179422;28;102987;-55
2022/03/06 13:43:29;;;;;;;22.70;20.70;;;;;;;21.93;30.39;94693.34;6182716;28;103385;-55
2022/03/06 13:46:39;;;;;;;21.83;19.90;;;;;;;21.92;30.64;94691.78;6182057;28;104046;-56
2022/03/06 13:49:40;;;;;;;21.83;19.93;;;;;;;21.92;30.27;94688.34;6159842;28;103031;-56
2022/03/06 13:52:42;;;;;;;21.00;19.20;;;;;;;21.92;30.43;94689.13;6181981;28;103070;-56
2022/03/06 13:55:58;;;;;;;19.53;17.80;;;;;;;21.95;30.56;94689.59;6183100;28;103775;-56
2022/03/06 13:59:01;;;;;;;19.30;17.70;;;;;;;21.97;30.41;94693.53;6177520;28;103551;-55
2022/03/06 14:02:11;;;;;;;17.97;16.57;;;;;;;21.96;30.44;94691.94;6181710;28;103279;-56
2022/03/06 14:05:13;;;;;;;18.20;16.60;;;;;;;21.96;30.60;94689.28;6183287;28;103513;-57
2022/03/06 14:08:26;;;;;;;18.30;16.60;;;;;;;21.97;30.26;94690.06;6182628;28;103254;-56